sensor_id;sensor_type;location;lat;lon;timestamp;P1;durP1;ratioP1;P2;durP2;ratioP2
3637;SDS011;1835;50.068;8.154;2022-07-29T00:00:21;4.87;;;3.23;;
3637;SDS011;1835;50.068;8.154;2022-07-29T00:02:49;10.60;;;3.97;;
3637;SDS011;1835;50.068;8.154;2022-07-29T00:05:17;9.43;;;3.57;;
3637;SDS011;1835;50.068;8.154;2022-07-29T00:07:47;6.47;;;4.00;;
3637;SDS011;1835;50.068;8.154;2022-07-29T00:10:15;6.20;;;3.40;;
3637;SDS011;1835;50.068;8.154;2022-07-29T00:12:43;9.23;;;3.80;;
3637;SDS011;1835;50.068;8.154;2022-07-29T00:15:12;7.90;;;3.23;;
3637;SDS011;1835;50.068;8.154;2022-07-29T00:17:40;5.70;;;3.50;;
3637;SDS011;1835;50.068;8.154;2022-07-29T00:20:09;7.77;;;3.50;;
3637;SDS011;1835;50.068;8.154;2022-07-29T00:22:37;6.87;;;3.93;;
3637;SDS011;1835;50.068;8.154;2022-07-29T00:25:07;5.07;;;4.30;;
3637;SDS011;1835;50.068;8.154;2022-07-29T00:27:36;4.00;;;3.70;;
3637;SDS011;1835;50.068;8.154;2022-07-29T00:30:05;6.80;;;3.67;;
3637;SDS011;1835;50.068;8.154;2022-07-29T00:32:34;5.97;;;3.50;;
3637;SDS011;1835;50.068;8.154;2022-07-29T00:35:03;5.80;;;4.10;;
3637;SDS011;1835;50.068;8.154;2022-07-29T00:37:50;11.40;;;3.77;;
3637;SDS011;1835;50.068;8.154;2022-07-29T00:40:19;9.13;;;3.27;;
3637;SDS011;1835;50.068;8.154;2022-07-29T00:42:49;3.33;;;3.10;;
3637;SDS011;1835;50.068;8.154;2022-07-29T00:45:18;3.90;;;3.53;;
3637;SDS011;1835;50.068;8.154;2022-07-29T00:47:48;3.20;;;3.00;;
3637;SDS011;1835;50.068;8.154;2022-07-29T00:50:16;8.03;;;3.50;;
3637;SDS011;1835;50.068;8.154;2022-07-29T00:52:45;6.13;;;3.90;;
3637;SDS011;1835;50.068;8.154;2022-07-29T00:55:14;5.30;;;3.73;;
3637;SDS011;1835;50.068;8.154;2022-07-29T00:57:44;6.53;;;3.40;;
3637;SDS011;1835;50.068;8.154;2022-07-29T01:00:14;5.10;;;3.77;;
3637;SDS011;1835;50.068;8.154;2022-07-29T01:02:45;3.90;;;3.60;;
3637;SDS011;1835;50.068;8.154;2022-07-29T01:05:16;8.50;;;4.20;;
3637;SDS011;1835;50.068;8.154;2022-07-29T01:07:48;5.17;;;3.20;;
3637;SDS011;1835;50.068;8.154;2022-07-29T01:10:21;5.20;;;3.13;;
3637;SDS011;1835;50.068;8.154;2022-07-29T01:12:52;3.97;;;3.43;;
3637;SDS011;1835;50.068;8.154;2022-07-29T01:15:22;4.93;;;3.00;;
3637;SDS011;1835;50.068;8.154;2022-07-29T01:17:52;3.70;;;3.03;;
3637;SDS011;1835;50.068;8.154;2022-07-29T01:20:31;3.37;;;3.10;;
3637;SDS011;1835;50.068;8.154;2022-07-29T01:23:31;8.43;;;2.93;;
3637;SDS011;1835;50.068;8.154;2022-07-29T01:26:28;3.40;;;3.10;;
3637;SDS011;1835;50.068;8.154;2022-07-29T01:29:07;4.37;;;3.80;;
3637;SDS011;1835;50.068;8.154;2022-07-29T01:31:45;7.10;;;3.70;;
3637;SDS011;1835;50.068;8.154;2022-07-29T01:34:27;4.17;;;3.80;;
3637;SDS011;1835;50.068;8.154;2022-07-29T01:37:03;5.37;;;3.63;;
3637;SDS011;1835;50.068;8.154;2022-07-29T01:39:37;6.00;;;3.07;;
3637;SDS011;1835;50.068;8.154;2022-07-29T01:42:09;5.80;;;3.80;;
3637;SDS011;1835;50.068;8.154;2022-07-29T01:44:48;5.67;;;3.40;;
3637;SDS011;1835;50.068;8.154;2022-07-29T01:47:25;3.93;;;3.53;;
3637;SDS011;1835;50.068;8.154;2022-07-29T01:50:01;4.50;;;3.17;;
3637;SDS011;1835;50.068;8.154;2022-07-29T01:52:36;9.13;;;3.60;;
3637;SDS011;1835;50.068;8.154;2022-07-29T01:55:11;3.40;;;3.10;;
3637;SDS011;1835;50.068;8.154;2022-07-29T01:57:43;4.57;;;3.80;;
3637;SDS011;1835;50.068;8.154;2022-07-29T02:00:17;3.20;;;2.90;;
3637;SDS011;1835;50.068;8.154;2022-07-29T02:02:46;3.23;;;2.93;;
3637;SDS011;1835;50.068;8.154;2022-07-29T02:05:17;8.63;;;3.93;;
3637;SDS011;1835;50.068;8.154;2022-07-29T02:07:48;5.43;;;3.70;;
3637;SDS011;1835;50.068;8.154;2022-07-29T02:10:18;8.57;;;4.53;;
3637;SDS011;1835;50.068;8.154;2022-07-29T02:12:51;13.47;;;4.10;;
3637;SDS011;1835;50.068;8.154;2022-07-29T02:15:23;13.93;;;4.30;;
3637;SDS011;1835;50.068;8.154;2022-07-29T02:17:54;13.80;;;4.90;;
3637;SDS011;1835;50.068;8.154;2022-07-29T02:20:26;12.33;;;3.97;;
3637;SDS011;1835;50.068;8.154;2022-07-29T02:22:58;5.10;;;3.43;;
3637;SDS011;1835;50.068;8.154;2022-07-29T02:25:27;18.80;;;4.50;;
3637;SDS011;1835;50.068;8.154;2022-07-29T02:28:03;10.60;;;4.20;;
3637;SDS011;1835;50.068;8.154;2022-07-29T02:30:34;8.50;;;4.13;;
3637;SDS011;1835;50.068;8.154;2022-07-29T02:33:06;6.17;;;3.83;;
3637;SDS011;1835;50.068;8.154;2022-07-29T02:35:37;4.70;;;3.77;;
3637;SDS011;1835;50.068;8.154;2022-07-29T02:38:07;6.33;;;4.10;;
3637;SDS011;1835;50.068;8.154;2022-07-29T02:40:55;5.67;;;3.60;;
3637;SDS011;1835;50.068;8.154;2022-07-29T02:43:24;7.17;;;3.70;;
3637;SDS011;1835;50.068;8.154;2022-07-29T02:45:55;8.30;;;4.20;;
3637;SDS011;1835;50.068;8.154;2022-07-29T02:48:27;6.20;;;3.97;;
3637;SDS011;1835;50.068;8.154;2022-07-29T02:51:05;4.20;;;3.80;;
3637;SDS011;1835;50.068;8.154;2022-07-29T02:54:01;11.97;;;3.57;;
3637;SDS011;1835;50.068;8.154;2022-07-29T02:56:35;5.57;;;4.30;;
3637;SDS011;1835;50.068;8.154;2022-07-29T02:59:06;6.00;;;3.90;;
3637;SDS011;1835;50.068;8.154;2022-07-29T03:01:40;9.47;;;4.30;;
3637;SDS011;1835;50.068;8.154;2022-07-29T03:04:11;6.40;;;4.30;;
3637;SDS011;1835;50.068;8.154;2022-07-29T03:06:41;3.93;;;3.23;;
3637;SDS011;1835;50.068;8.154;2022-07-29T03:09:12;12.40;;;3.67;;
3637;SDS011;1835;50.068;8.154;2022-07-29T03:11:41;12.93;;;4.23;;
3637;SDS011;1835;50.068;8.154;2022-07-29T03:14:16;10.40;;;3.47;;
3637;SDS011;1835;50.068;8.154;2022-07-29T03:16:48;13.03;;;4.80;;
3637;SDS011;1835;50.068;8.154;2022-07-29T03:19:18;4.60;;;3.83;;
3637;SDS011;1835;50.068;8.154;2022-07-29T03:21:47;6.07;;;4.70;;
3637;SDS011;1835;50.068;8.154;2022-07-29T03:24:25;6.90;;;3.70;;
3637;SDS011;1835;50.068;8.154;2022-07-29T03:26:58;6.60;;;4.23;;
3637;SDS011;1835;50.068;8.154;2022-07-29T03:29:27;8.53;;;4.00;;
3637;SDS011;1835;50.068;8.154;2022-07-29T03:32:01;5.30;;;3.87;;
3637;SDS011;1835;50.068;8.154;2022-07-29T03:34:32;6.43;;;4.50;;
3637;SDS011;1835;50.068;8.154;2022-07-29T03:37:00;7.70;;;4.07;;
3637;SDS011;1835;50.068;8.154;2022-07-29T03:39:29;4.93;;;3.73;;
3637;SDS011;1835;50.068;8.154;2022-07-29T03:42:03;6.53;;;4.40;;
3637;SDS011;1835;50.068;8.154;2022-07-29T03:44:34;6.60;;;3.97;;
3637;SDS011;1835;50.068;8.154;2022-07-29T03:47:06;5.90;;;3.80;;
3637;SDS011;1835;50.068;8.154;2022-07-29T03:49:37;10.00;;;4.10;;
3637;SDS011;1835;50.068;8.154;2022-07-29T03:52:06;9.90;;;4.30;;
3637;SDS011;1835;50.068;8.154;2022-07-29T03:54:35;9.33;;;4.43;;
3637;SDS011;1835;50.068;8.154;2022-07-29T03:57:03;5.70;;;3.90;;
3637;SDS011;1835;50.068;8.154;2022-07-29T03:59:34;3.87;;;3.57;;
3637;SDS011;1835;50.068;8.154;2022-07-29T04:02:03;6.20;;;3.47;;
3637;SDS011;1835;50.068;8.154;2022-07-29T04:04:33;3.77;;;3.47;;
3637;SDS011;1835;50.068;8.154;2022-07-29T04:07:03;5.30;;;3.20;;
3637;SDS011;1835;50.068;8.154;2022-07-29T04:09:31;11.17;;;4.80;;
3637;SDS011;1835;50.068;8.154;2022-07-29T04:11:59;5.40;;;4.43;;
3637;SDS011;1835;50.068;8.154;2022-07-29T04:14:30;9.97;;;3.80;;
3637;SDS011;1835;50.068;8.154;2022-07-29T04:16:58;19.10;;;4.40;;
3637;SDS011;1835;50.068;8.154;2022-07-29T04:19:28;4.03;;;3.60;;
3637;SDS011;1835;50.068;8.154;2022-07-29T04:21:57;8.77;;;4.80;;
3637;SDS011;1835;50.068;8.154;2022-07-29T04:24:27;4.63;;;3.57;;
3637;SDS011;1835;50.068;8.154;2022-07-29T04:26:55;5.80;;;4.30;;
3637;SDS011;1835;50.068;8.154;2022-07-29T04:29:23;4.90;;;3.93;;
3637;SDS011;1835;50.068;8.154;2022-07-29T04:31:52;5.47;;;4.33;;
3637;SDS011;1835;50.068;8.154;2022-07-29T04:34:20;3.93;;;3.50;;
3637;SDS011;1835;50.068;8.154;2022-07-29T04:36:54;16.30;;;4.43;;
3637;SDS011;1835;50.068;8.154;2022-07-29T04:39:23;4.70;;;3.63;;
3637;SDS011;1835;50.068;8.154;2022-07-29T04:41:54;4.80;;;4.30;;
3637;SDS011;1835;50.068;8.154;2022-07-29T04:44:24;4.87;;;3.63;;
3637;SDS011;1835;50.068;8.154;2022-07-29T04:46:54;8.57;;;4.40;;
3637;SDS011;1835;50.068;8.154;2022-07-29T04:49:23;4.40;;;3.67;;
3637;SDS011;1835;50.068;8.154;2022-07-29T04:51:52;4.80;;;3.30;;
3637;SDS011;1835;50.068;8.154;2022-07-29T04:54:21;7.00;;;4.47;;
3637;SDS011;1835;50.068;8.154;2022-07-29T04:56:51;3.90;;;3.60;;
3637;SDS011;1835;50.068;8.154;2022-07-29T04:59:19;4.93;;;3.07;;
3637;SDS011;1835;50.068;8.154;2022-07-29T05:01:48;6.20;;;3.97;;
3637;SDS011;1835;50.068;8.154;2022-07-29T05:04:16;5.90;;;3.63;;
3637;SDS011;1835;50.068;8.154;2022-07-29T05:06:45;10.40;;;4.17;;
3637;SDS011;1835;50.068;8.154;2022-07-29T05:09:15;6.63;;;3.87;;
3637;SDS011;1835;50.068;8.154;2022-07-29T05:11:43;6.17;;;3.67;;
3637;SDS011;1835;50.068;8.154;2022-07-29T05:14:11;5.37;;;3.57;;
3637;SDS011;1835;50.068;8.154;2022-07-29T05:16:39;6.43;;;3.20;;
3637;SDS011;1835;50.068;8.154;2022-07-29T05:19:08;6.50;;;3.67;;
3637;SDS011;1835;50.068;8.154;2022-07-29T05:21:40;5.43;;;3.77;;
3637;SDS011;1835;50.068;8.154;2022-07-29T05:24:08;4.20;;;3.60;;
3637;SDS011;1835;50.068;8.154;2022-07-29T05:26:38;6.23;;;3.60;;
3637;SDS011;1835;50.068;8.154;2022-07-29T05:29:07;4.50;;;3.47;;
3637;SDS011;1835;50.068;8.154;2022-07-29T05:31:55;8.17;;;3.70;;
3637;SDS011;1835;50.068;8.154;2022-07-29T05:34:23;6.17;;;3.87;;
3637;SDS011;1835;50.068;8.154;2022-07-29T05:36:52;8.03;;;4.90;;
3637;SDS011;1835;50.068;8.154;2022-07-29T05:39:20;5.43;;;3.90;;
3637;SDS011;1835;50.068;8.154;2022-07-29T05:42:09;15.20;;;4.23;;
3637;SDS011;1835;50.068;8.154;2022-07-29T05:44:38;8.50;;;4.13;;
3637;SDS011;1835;50.068;8.154;2022-07-29T05:47:06;8.43;;;3.60;;
3637;SDS011;1835;50.068;8.154;2022-07-29T05:49:34;5.33;;;3.30;;
3637;SDS011;1835;50.068;8.154;2022-07-29T05:52:03;7.50;;;3.80;;
3637;SDS011;1835;50.068;8.154;2022-07-29T05:54:31;6.70;;;4.23;;
3637;SDS011;1835;50.068;8.154;2022-07-29T05:57:00;4.20;;;3.77;;
3637;SDS011;1835;50.068;8.154;2022-07-29T05:59:29;6.13;;;4.43;;
3637;SDS011;1835;50.068;8.154;2022-07-29T06:01:57;7.13;;;3.50;;
3637;SDS011;1835;50.068;8.154;2022-07-29T06:04:26;6.40;;;3.00;;
3637;SDS011;1835;50.068;8.154;2022-07-29T06:06:54;3.37;;;2.60;;
3637;SDS011;1835;50.068;8.154;2022-07-29T06:09:22;5.60;;;2.77;;
3637;SDS011;1835;50.068;8.154;2022-07-29T06:11:50;4.30;;;2.97;;
3637;SDS011;1835;50.068;8.154;2022-07-29T06:14:18;3.50;;;2.70;;
3637;SDS011;1835;50.068;8.154;2022-07-29T06:16:48;2.23;;;2.03;;
3637;SDS011;1835;50.068;8.154;2022-07-29T06:19:16;7.73;;;2.73;;
3637;SDS011;1835;50.068;8.154;2022-07-29T06:21:44;13.10;;;2.83;;
3637;SDS011;1835;50.068;8.154;2022-07-29T06:24:14;4.60;;;2.10;;
3637;SDS011;1835;50.068;8.154;2022-07-29T06:26:44;3.23;;;2.87;;
3637;SDS011;1835;50.068;8.154;2022-07-29T06:29:12;5.57;;;3.30;;
3637;SDS011;1835;50.068;8.154;2022-07-29T06:31:40;6.83;;;3.30;;
3637;SDS011;1835;50.068;8.154;2022-07-29T06:34:10;2.53;;;2.43;;
3637;SDS011;1835;50.068;8.154;2022-07-29T06:36:39;5.23;;;2.43;;
3637;SDS011;1835;50.068;8.154;2022-07-29T06:39:07;3.17;;;2.67;;
3637;SDS011;1835;50.068;8.154;2022-07-29T06:41:38;10.30;;;2.60;;
3637;SDS011;1835;50.068;8.154;2022-07-29T06:44:06;3.93;;;2.00;;
3637;SDS011;1835;50.068;8.154;2022-07-29T06:46:34;7.30;;;3.00;;
3637;SDS011;1835;50.068;8.154;2022-07-29T06:49:03;2.70;;;2.50;;
3637;SDS011;1835;50.068;8.154;2022-07-29T06:51:32;7.13;;;2.33;;
3637;SDS011;1835;50.068;8.154;2022-07-29T06:54:01;2.97;;;2.30;;
3637;SDS011;1835;50.068;8.154;2022-07-29T06:56:32;6.17;;;2.40;;
3637;SDS011;1835;50.068;8.154;2022-07-29T06:59:04;7.27;;;3.00;;
3637;SDS011;1835;50.068;8.154;2022-07-29T07:01:34;3.40;;;2.10;;
3637;SDS011;1835;50.068;8.154;2022-07-29T07:04:04;2.60;;;2.50;;
3637;SDS011;1835;50.068;8.154;2022-07-29T07:06:33;9.37;;;2.67;;
3637;SDS011;1835;50.068;8.154;2022-07-29T07:09:02;3.80;;;2.63;;
3637;SDS011;1835;50.068;8.154;2022-07-29T07:11:30;4.30;;;2.13;;
3637;SDS011;1835;50.068;8.154;2022-07-29T07:13:58;3.97;;;2.50;;
3637;SDS011;1835;50.068;8.154;2022-07-29T07:16:29;4.30;;;2.47;;
3637;SDS011;1835;50.068;8.154;2022-07-29T07:18:58;5.97;;;2.80;;
3637;SDS011;1835;50.068;8.154;2022-07-29T07:21:26;4.50;;;2.97;;
3637;SDS011;1835;50.068;8.154;2022-07-29T07:23:57;4.77;;;2.17;;
3637;SDS011;1835;50.068;8.154;2022-07-29T07:26:27;6.70;;;2.53;;
3637;SDS011;1835;50.068;8.154;2022-07-29T07:28:55;3.83;;;2.13;;
3637;SDS011;1835;50.068;8.154;2022-07-29T07:31:23;1.97;;;1.87;;
3637;SDS011;1835;50.068;8.154;2022-07-29T07:33:52;4.90;;;2.03;;
3637;SDS011;1835;50.068;8.154;2022-07-29T07:36:20;2.60;;;2.40;;
3637;SDS011;1835;50.068;8.154;2022-07-29T07:38:49;3.60;;;2.93;;
3637;SDS011;1835;50.068;8.154;2022-07-29T07:41:18;8.23;;;2.27;;
3637;SDS011;1835;50.068;8.154;2022-07-29T07:43:47;6.13;;;1.63;;
3637;SDS011;1835;50.068;8.154;2022-07-29T07:46:15;3.10;;;2.30;;
3637;SDS011;1835;50.068;8.154;2022-07-29T07:48:43;5.37;;;2.73;;
3637;SDS011;1835;50.068;8.154;2022-07-29T07:51:12;1.93;;;1.63;;
3637;SDS011;1835;50.068;8.154;2022-07-29T07:53:40;2.20;;;2.00;;
3637;SDS011;1835;50.068;8.154;2022-07-29T07:56:08;3.90;;;1.80;;
3637;SDS011;1835;50.068;8.154;2022-07-29T07:58:39;3.20;;;2.23;;
3637;SDS011;1835;50.068;8.154;2022-07-29T08:01:07;6.17;;;1.97;;
3637;SDS011;1835;50.068;8.154;2022-07-29T08:03:36;7.03;;;3.30;;
3637;SDS011;1835;50.068;8.154;2022-07-29T08:06:05;1.90;;;1.70;;
3637;SDS011;1835;50.068;8.154;2022-07-29T08:08:33;5.10;;;2.10;;
3637;SDS011;1835;50.068;8.154;2022-07-29T08:11:01;5.30;;;2.20;;
3637;SDS011;1835;50.068;8.154;2022-07-29T08:13:35;1.83;;;1.73;;
3637;SDS011;1835;50.068;8.154;2022-07-29T08:16:06;6.13;;;1.90;;
3637;SDS011;1835;50.068;8.154;2022-07-29T08:18:42;6.83;;;2.37;;
3637;SDS011;1835;50.068;8.154;2022-07-29T08:21:12;1.50;;;1.50;;
3637;SDS011;1835;50.068;8.154;2022-07-29T08:23:41;3.33;;;2.10;;
3637;SDS011;1835;50.068;8.154;2022-07-29T08:26:26;2.63;;;2.27;;
3637;SDS011;1835;50.068;8.154;2022-07-29T08:28:54;3.93;;;2.27;;
3637;SDS011;1835;50.068;8.154;2022-07-29T08:31:23;2.20;;;2.00;;
3637;SDS011;1835;50.068;8.154;2022-07-29T08:33:51;6.20;;;2.30;;
3637;SDS011;1835;50.068;8.154;2022-07-29T08:36:19;6.60;;;2.20;;
3637;SDS011;1835;50.068;8.154;2022-07-29T08:38:48;2.80;;;1.77;;
3637;SDS011;1835;50.068;8.154;2022-07-29T08:41:16;6.37;;;2.20;;
3637;SDS011;1835;50.068;8.154;2022-07-29T08:43:45;10.70;;;2.07;;
3637;SDS011;1835;50.068;8.154;2022-07-29T08:46:14;4.00;;;2.80;;
3637;SDS011;1835;50.068;8.154;2022-07-29T08:48:44;5.60;;;1.80;;
3637;SDS011;1835;50.068;8.154;2022-07-29T08:51:13;12.43;;;2.17;;
3637;SDS011;1835;50.068;8.154;2022-07-29T08:53:44;7.13;;;2.03;;
3637;SDS011;1835;50.068;8.154;2022-07-29T08:56:15;3.87;;;2.10;;
3637;SDS011;1835;50.068;8.154;2022-07-29T08:58:45;2.67;;;1.97;;
3637;SDS011;1835;50.068;8.154;2022-07-29T09:01:20;3.53;;;1.70;;
3637;SDS011;1835;50.068;8.154;2022-07-29T09:04:04;5.63;;;1.53;;
3637;SDS011;1835;50.068;8.154;2022-07-29T09:06:39;2.67;;;1.90;;
3637;SDS011;1835;50.068;8.154;2022-07-29T09:09:13;3.20;;;2.30;;
3637;SDS011;1835;50.068;8.154;2022-07-29T09:11:42;1.67;;;1.50;;
3637;SDS011;1835;50.068;8.154;2022-07-29T09:14:11;8.03;;;1.70;;
3637;SDS011;1835;50.068;8.154;2022-07-29T09:16:44;2.77;;;1.90;;
3637;SDS011;1835;50.068;8.154;2022-07-29T09:19:29;1.70;;;1.60;;
3637;SDS011;1835;50.068;8.154;2022-07-29T09:22:01;5.63;;;1.97;;
3637;SDS011;1835;50.068;8.154;2022-07-29T09:24:39;6.97;;;2.03;;
3637;SDS011;1835;50.068;8.154;2022-07-29T09:27:11;3.90;;;1.90;;
3637;SDS011;1835;50.068;8.154;2022-07-29T09:29:54;3.10;;;1.50;;
3637;SDS011;1835;50.068;8.154;2022-07-29T09:32:24;2.10;;;1.90;;
3637;SDS011;1835;50.068;8.154;2022-07-29T09:37:47;2.20;;;1.80;;
3637;SDS011;1835;50.068;8.154;2022-07-29T09:40:17;2.37;;;1.77;;
3637;SDS011;1835;50.068;8.154;2022-07-29T09:42:47;3.37;;;1.80;;
3637;SDS011;1835;50.068;8.154;2022-07-29T09:45:26;1.70;;;1.60;;
3637;SDS011;1835;50.068;8.154;2022-07-29T09:47:56;1.50;;;1.50;;
3637;SDS011;1835;50.068;8.154;2022-07-29T09:50:38;2.30;;;1.90;;
3637;SDS011;1835;50.068;8.154;2022-07-29T09:53:07;2.60;;;1.90;;
3637;SDS011;1835;50.068;8.154;2022-07-29T09:55:46;1.97;;;1.87;;
3637;SDS011;1835;50.068;8.154;2022-07-29T09:58:17;4.13;;;1.83;;
3637;SDS011;1835;50.068;8.154;2022-07-29T10:00:47;1.63;;;1.43;;
3637;SDS011;1835;50.068;8.154;2022-07-29T10:03:17;4.57;;;2.00;;
3637;SDS011;1835;50.068;8.154;2022-07-29T10:06:03;1.90;;;1.80;;
3637;SDS011;1835;50.068;8.154;2022-07-29T10:08:33;2.40;;;2.20;;
3637;SDS011;1835;50.068;8.154;2022-07-29T10:11:08;5.57;;;1.90;;
3637;SDS011;1835;50.068;8.154;2022-07-29T10:13:38;1.67;;;1.57;;
3637;SDS011;1835;50.068;8.154;2022-07-29T10:16:10;5.33;;;2.07;;
3637;SDS011;1835;50.068;8.154;2022-07-29T10:18:40;4.17;;;1.57;;
3637;SDS011;1835;50.068;8.154;2022-07-29T10:21:11;2.10;;;1.37;;
3637;SDS011;1835;50.068;8.154;2022-07-29T10:24:00;2.80;;;2.00;;
3637;SDS011;1835;50.068;8.154;2022-07-29T10:26:29;3.70;;;1.63;;
3637;SDS011;1835;50.068;8.154;2022-07-29T10:28:57;1.70;;;1.60;;
3637;SDS011;1835;50.068;8.154;2022-07-29T10:31:27;4.80;;;2.30;;
3637;SDS011;1835;50.068;8.154;2022-07-29T10:34:11;2.00;;;1.80;;
3637;SDS011;1835;50.068;8.154;2022-07-29T10:36:54;3.63;;;1.90;;
3637;SDS011;1835;50.068;8.154;2022-07-29T10:39:35;5.30;;;1.77;;
3637;SDS011;1835;50.068;8.154;2022-07-29T10:42:17;3.43;;;2.20;;
3637;SDS011;1835;50.068;8.154;2022-07-29T10:44:59;2.27;;;2.10;;
3637;SDS011;1835;50.068;8.154;2022-07-29T10:47:30;3.53;;;1.77;;
3637;SDS011;1835;50.068;8.154;2022-07-29T10:50:01;2.53;;;1.57;;
3637;SDS011;1835;50.068;8.154;2022-07-29T10:55:33;5.83;;;2.60;;
3637;SDS011;1835;50.068;8.154;2022-07-29T10:58:11;3.90;;;1.80;;
3637;SDS011;1835;50.068;8.154;2022-07-29T11:01:01;2.17;;;2.00;;
3637;SDS011;1835;50.068;8.154;2022-07-29T11:04:04;3.40;;;1.90;;
3637;SDS011;1835;50.068;8.154;2022-07-29T11:09:35;3.37;;;2.00;;
3637;SDS011;1835;50.068;8.154;2022-07-29T11:12:04;4.07;;;2.40;;
3637;SDS011;1835;50.068;8.154;2022-07-29T11:15:14;4.17;;;2.10;;
3637;SDS011;1835;50.068;8.154;2022-07-29T11:18:06;4.57;;;2.30;;
3637;SDS011;1835;50.068;8.154;2022-07-29T11:20:43;2.13;;;2.03;;
3637;SDS011;1835;50.068;8.154;2022-07-29T11:23:18;3.50;;;2.20;;
3637;SDS011;1835;50.068;8.154;2022-07-29T11:29:04;4.97;;;2.20;;
3637;SDS011;1835;50.068;8.154;2022-07-29T11:31:45;2.53;;;2.33;;
3637;SDS011;1835;50.068;8.154;2022-07-29T11:34:19;6.23;;;2.30;;
3637;SDS011;1835;50.068;8.154;2022-07-29T11:37:13;2.30;;;2.03;;
3637;SDS011;1835;50.068;8.154;2022-07-29T11:40:13;1.90;;;1.80;;
3637;SDS011;1835;50.068;8.154;2022-07-29T11:42:45;5.83;;;1.97;;
3637;SDS011;1835;50.068;8.154;2022-07-29T11:45:18;7.60;;;2.87;;
3637;SDS011;1835;50.068;8.154;2022-07-29T11:48:15;2.93;;;2.10;;
3637;SDS011;1835;50.068;8.154;2022-07-29T11:50:57;2.63;;;2.00;;
3637;SDS011;1835;50.068;8.154;2022-07-29T11:53:28;3.33;;;2.20;;
3637;SDS011;1835;50.068;8.154;2022-07-29T11:55:58;3.03;;;2.27;;
3637;SDS011;1835;50.068;8.154;2022-07-29T11:58:29;3.07;;;2.10;;
3637;SDS011;1835;50.068;8.154;2022-07-29T12:00:58;2.93;;;2.00;;
3637;SDS011;1835;50.068;8.154;2022-07-29T12:03:30;2.40;;;2.30;;
3637;SDS011;1835;50.068;8.154;2022-07-29T12:06:01;2.33;;;2.17;;
3637;SDS011;1835;50.068;8.154;2022-07-29T12:08:38;2.30;;;2.20;;
3637;SDS011;1835;50.068;8.154;2022-07-29T12:11:14;3.97;;;2.33;;
3637;SDS011;1835;50.068;8.154;2022-07-29T12:13:48;3.20;;;2.73;;
3637;SDS011;1835;50.068;8.154;2022-07-29T12:16:18;2.63;;;2.50;;
3637;SDS011;1835;50.068;8.154;2022-07-29T12:18:55;2.90;;;2.53;;
3637;SDS011;1835;50.068;8.154;2022-07-29T12:21:24;5.43;;;2.30;;
3637;SDS011;1835;50.068;8.154;2022-07-29T12:23:54;4.03;;;2.03;;
3637;SDS011;1835;50.068;8.154;2022-07-29T12:26:31;5.23;;;2.63;;
3637;SDS011;1835;50.068;8.154;2022-07-29T12:29:02;5.37;;;2.40;;
3637;SDS011;1835;50.068;8.154;2022-07-29T12:31:36;2.90;;;2.67;;
3637;SDS011;1835;50.068;8.154;2022-07-29T12:34:09;5.33;;;2.17;;
3637;SDS011;1835;50.068;8.154;2022-07-29T12:36:39;3.13;;;1.87;;
3637;SDS011;1835;50.068;8.154;2022-07-29T12:39:09;3.53;;;2.10;;
3637;SDS011;1835;50.068;8.154;2022-07-29T12:41:38;5.13;;;2.30;;
3637;SDS011;1835;50.068;8.154;2022-07-29T12:44:08;3.40;;;2.67;;
3637;SDS011;1835;50.068;8.154;2022-07-29T12:46:36;2.20;;;2.10;;
3637;SDS011;1835;50.068;8.154;2022-07-29T12:49:04;3.33;;;2.20;;
3637;SDS011;1835;50.068;8.154;2022-07-29T12:51:33;3.07;;;2.80;;
3637;SDS011;1835;50.068;8.154;2022-07-29T12:54:05;5.57;;;3.33;;
3637;SDS011;1835;50.068;8.154;2022-07-29T12:56:37;2.53;;;2.40;;
3637;SDS011;1835;50.068;8.154;2022-07-29T12:59:14;2.47;;;2.27;;
3637;SDS011;1835;50.068;8.154;2022-07-29T13:01:44;5.63;;;2.43;;
3637;SDS011;1835;50.068;8.154;2022-07-29T13:04:25;4.27;;;2.33;;
3637;SDS011;1835;50.068;8.154;2022-07-29T13:06:58;4.50;;;1.97;;
3637;SDS011;1835;50.068;8.154;2022-07-29T13:09:39;5.70;;;2.00;;
3637;SDS011;1835;50.068;8.154;2022-07-29T13:12:10;1.97;;;1.83;;
3637;SDS011;1835;50.068;8.154;2022-07-29T13:14:41;1.80;;;1.70;;
3637;SDS011;1835;50.068;8.154;2022-07-29T13:17:11;5.33;;;2.10;;
3637;SDS011;1835;50.068;8.154;2022-07-29T13:19:42;2.63;;;1.80;;
3637;SDS011;1835;50.068;8.154;2022-07-29T13:22:12;4.90;;;1.90;;
3637;SDS011;1835;50.068;8.154;2022-07-29T13:24:50;2.47;;;2.27;;
3637;SDS011;1835;50.068;8.154;2022-07-29T13:27:20;2.27;;;2.00;;
3637;SDS011;1835;50.068;8.154;2022-07-29T13:29:52;2.77;;;2.47;;
3637;SDS011;1835;50.068;8.154;2022-07-29T13:32:22;4.07;;;2.03;;
3637;SDS011;1835;50.068;8.154;2022-07-29T13:34:53;7.23;;;2.10;;
3637;SDS011;1835;50.068;8.154;2022-07-29T13:37:23;6.33;;;2.30;;
3637;SDS011;1835;50.068;8.154;2022-07-29T13:39:51;2.63;;;1.83;;
3637;SDS011;1835;50.068;8.154;2022-07-29T13:42:22;2.50;;;2.40;;
3637;SDS011;1835;50.068;8.154;2022-07-29T13:44:52;3.23;;;2.40;;
3637;SDS011;1835;50.068;8.154;2022-07-29T13:47:21;2.57;;;2.03;;
3637;SDS011;1835;50.068;8.154;2022-07-29T13:49:58;3.87;;;2.50;;
3637;SDS011;1835;50.068;8.154;2022-07-29T13:52:26;4.53;;;2.50;;
3637;SDS011;1835;50.068;8.154;2022-07-29T13:54:55;2.90;;;2.60;;
3637;SDS011;1835;50.068;8.154;2022-07-29T13:57:23;2.57;;;2.37;;
3637;SDS011;1835;50.068;8.154;2022-07-29T13:59:53;2.60;;;2.40;;
3637;SDS011;1835;50.068;8.154;2022-07-29T14:02:21;2.13;;;2.03;;
3637;SDS011;1835;50.068;8.154;2022-07-29T14:04:51;4.97;;;2.40;;
3637;SDS011;1835;50.068;8.154;2022-07-29T14:07:20;3.67;;;2.57;;
3637;SDS011;1835;50.068;8.154;2022-07-29T14:09:48;8.33;;;2.40;;
3637;SDS011;1835;50.068;8.154;2022-07-29T14:12:17;2.33;;;2.10;;
3637;SDS011;1835;50.068;8.154;2022-07-29T14:14:45;22.17;;;2.70;;
3637;SDS011;1835;50.068;8.154;2022-07-29T14:17:14;2.90;;;2.70;;
3637;SDS011;1835;50.068;8.154;2022-07-29T14:19:43;3.40;;;1.80;;
3637;SDS011;1835;50.068;8.154;2022-07-29T14:22:11;3.23;;;2.57;;
3637;SDS011;1835;50.068;8.154;2022-07-29T14:24:39;3.83;;;2.60;;
3637;SDS011;1835;50.068;8.154;2022-07-29T14:27:08;9.43;;;2.50;;
3637;SDS011;1835;50.068;8.154;2022-07-29T14:29:36;2.50;;;2.30;;
3637;SDS011;1835;50.068;8.154;2022-07-29T14:32:05;2.37;;;2.17;;
3637;SDS011;1835;50.068;8.154;2022-07-29T14:34:35;2.90;;;2.20;;
3637;SDS011;1835;50.068;8.154;2022-07-29T14:37:04;4.93;;;2.40;;
3637;SDS011;1835;50.068;8.154;2022-07-29T14:39:33;6.67;;;2.00;;
3637;SDS011;1835;50.068;8.154;2022-07-29T14:42:08;2.80;;;2.60;;
3637;SDS011;1835;50.068;8.154;2022-07-29T14:44:38;2.73;;;2.27;;
3637;SDS011;1835;50.068;8.154;2022-07-29T14:47:07;2.97;;;2.63;;
3637;SDS011;1835;50.068;8.154;2022-07-29T14:49:37;2.40;;;2.30;;
3637;SDS011;1835;50.068;8.154;2022-07-29T14:52:05;3.40;;;2.30;;
3637;SDS011;1835;50.068;8.154;2022-07-29T14:54:33;3.67;;;2.97;;
3637;SDS011;1835;50.068;8.154;2022-07-29T14:57:05;3.07;;;2.87;;
3637;SDS011;1835;50.068;8.154;2022-07-29T14:59:33;2.80;;;2.43;;
3637;SDS011;1835;50.068;8.154;2022-07-29T15:02:01;4.00;;;2.90;;
3637;SDS011;1835;50.068;8.154;2022-07-29T15:04:30;2.50;;;2.33;;
3637;SDS011;1835;50.068;8.154;2022-07-29T15:06:59;3.83;;;3.40;;
3637;SDS011;1835;50.068;8.154;2022-07-29T15:09:27;13.20;;;3.53;;
3637;SDS011;1835;50.068;8.154;2022-07-29T15:11:55;3.50;;;3.20;;
3637;SDS011;1835;50.068;8.154;2022-07-29T15:14:24;3.40;;;3.10;;
3637;SDS011;1835;50.068;8.154;2022-07-29T15:16:52;3.77;;;3.27;;
3637;SDS011;1835;50.068;8.154;2022-07-29T15:19:20;5.00;;;3.37;;
3637;SDS011;1835;50.068;8.154;2022-07-29T15:21:49;3.83;;;2.80;;
3637;SDS011;1835;50.068;8.154;2022-07-29T15:24:20;3.20;;;2.90;;
3637;SDS011;1835;50.068;8.154;2022-07-29T15:26:48;3.43;;;3.00;;
3637;SDS011;1835;50.068;8.154;2022-07-29T15:29:16;10.03;;;3.57;;
3637;SDS011;1835;50.068;8.154;2022-07-29T15:31:44;5.17;;;3.20;;
3637;SDS011;1835;50.068;8.154;2022-07-29T15:34:13;8.27;;;4.07;;
3637;SDS011;1835;50.068;8.154;2022-07-29T15:36:41;10.73;;;4.07;;
3637;SDS011;1835;50.068;8.154;2022-07-29T15:39:18;5.80;;;3.60;;
3637;SDS011;1835;50.068;8.154;2022-07-29T15:41:49;11.63;;;4.30;;
3637;SDS011;1835;50.068;8.154;2022-07-29T15:44:17;4.67;;;3.20;;
3637;SDS011;1835;50.068;8.154;2022-07-29T15:46:46;8.27;;;5.17;;
3637;SDS011;1835;50.068;8.154;2022-07-29T15:49:34;7.40;;;4.07;;
3637;SDS011;1835;50.068;8.154;2022-07-29T15:52:15;7.70;;;4.17;;
3637;SDS011;1835;50.068;8.154;2022-07-29T15:54:53;7.63;;;3.17;;